sensor_id;sensor_type;location;lat;lon;timestamp;P1;durP1;ratioP1;P2;durP2;ratioP2
73841;SDS011;62184;52.006;5.924;2023-07-13T00:00:42;10.57;;;6.38;;
73841;SDS011;62184;52.006;5.924;2023-07-13T00:03:11;10.88;;;6.53;;
73841;SDS011;62184;52.006;5.924;2023-07-13T00:05:38;10.98;;;6.55;;
73841;SDS011;62184;52.006;5.924;2023-07-13T00:08:05;9.93;;;6.50;;
73841;SDS011;62184;52.006;5.924;2023-07-13T00:10:31;12.05;;;6.90;;
73841;SDS011;62184;52.006;5.924;2023-07-13T00:12:58;9.60;;;6.28;;
73841;SDS011;62184;52.006;5.924;2023-07-13T00:15:25;9.57;;;6.50;;
73841;SDS011;62184;52.006;5.924;2023-07-13T00:17:53;12.60;;;6.50;;
73841;SDS011;62184;52.006;5.924;2023-07-13T00:20:24;12.37;;;6.33;;
73841;SDS011;62184;52.006;5.924;2023-07-13T00:22:51;10.70;;;6.50;;
73841;SDS011;62184;52.006;5.924;2023-07-13T00:25:19;12.10;;;6.40;;
73841;SDS011;62184;52.006;5.924;2023-07-13T00:27:46;11.57;;;6.20;;
73841;SDS011;62184;52.006;5.924;2023-07-13T00:30:13;11.40;;;6.03;;
73841;SDS011;62184;52.006;5.924;2023-07-13T00:32:40;10.57;;;6.25;;
73841;SDS011;62184;52.006;5.924;2023-07-13T00:35:07;10.20;;;5.88;;
73841;SDS011;62184;52.006;5.924;2023-07-13T00:37:37;9.55;;;6.10;;
73841;SDS011;62184;52.006;5.924;2023-07-13T00:40:04;9.77;;;6.00;;
73841;SDS011;62184;52.006;5.924;2023-07-13T00:42:34;9.43;;;6.33;;
73841;SDS011;62184;52.006;5.924;2023-07-13T00:45:01;9.30;;;6.50;;
73841;SDS011;62184;52.006;5.924;2023-07-13T00:47:31;9.88;;;6.45;;
73841;SDS011;62184;52.006;5.924;2023-07-13T00:49:57;8.88;;;6.50;;
73841;SDS011;62184;52.006;5.924;2023-07-13T00:52:24;10.40;;;6.50;;
73841;SDS011;62184;52.006;5.924;2023-07-13T00:54:54;10.25;;;6.30;;
73841;SDS011;62184;52.006;5.924;2023-07-13T00:57:23;9.82;;;6.10;;
73841;SDS011;62184;52.006;5.924;2023-07-13T00:59:52;9.57;;;6.70;;
73841;SDS011;62184;52.006;5.924;2023-07-13T01:02:23;9.40;;;6.47;;
73841;SDS011;62184;52.006;5.924;2023-07-13T01:04:51;9.97;;;6.67;;
73841;SDS011;62184;52.006;5.924;2023-07-13T01:07:18;9.45;;;6.25;;
73841;SDS011;62184;52.006;5.924;2023-07-13T01:09:45;11.27;;;6.68;;
73841;SDS011;62184;52.006;5.924;2023-07-13T01:12:14;10.13;;;6.30;;
73841;SDS011;62184;52.006;5.924;2023-07-13T01:14:41;10.55;;;6.32;;
73841;SDS011;62184;52.006;5.924;2023-07-13T01:17:09;7.35;;;5.78;;
73841;SDS011;62184;52.006;5.924;2023-07-13T01:19:37;9.80;;;6.20;;
73841;SDS011;62184;52.006;5.924;2023-07-13T01:22:11;8.88;;;6.10;;
73841;SDS011;62184;52.006;5.924;2023-07-13T01:24:41;10.65;;;6.50;;
73841;SDS011;62184;52.006;5.924;2023-07-13T01:27:11;9.00;;;6.20;;
73841;SDS011;62184;52.006;5.924;2023-07-13T01:29:41;10.98;;;6.20;;
73841;SDS011;62184;52.006;5.924;2023-07-13T01:32:11;10.10;;;6.30;;
73841;SDS011;62184;52.006;5.924;2023-07-13T01:34:40;9.75;;;6.30;;
73841;SDS011;62184;52.006;5.924;2023-07-13T01:37:10;9.77;;;6.43;;
73841;SDS011;62184;52.006;5.924;2023-07-13T01:39:38;9.13;;;6.40;;
73841;SDS011;62184;52.006;5.924;2023-07-13T01:42:04;11.40;;;6.45;;
73841;SDS011;62184;52.006;5.924;2023-07-13T01:44:32;9.27;;;6.32;;
73841;SDS011;62184;52.006;5.924;2023-07-13T01:46:59;9.18;;;6.50;;
73841;SDS011;62184;52.006;5.924;2023-07-13T01:49:27;9.77;;;6.45;;
73841;SDS011;62184;52.006;5.924;2023-07-13T01:51:53;9.57;;;6.68;;
73841;SDS011;62184;52.006;5.924;2023-07-13T01:54:23;9.38;;;6.60;;
73841;SDS011;62184;52.006;5.924;2023-07-13T01:56:49;9.67;;;6.37;;
73841;SDS011;62184;52.006;5.924;2023-07-13T01:59:16;10.00;;;6.90;;
73841;SDS011;62184;52.006;5.924;2023-07-13T02:01:43;8.82;;;6.30;;
73841;SDS011;62184;52.006;5.924;2023-07-13T02:04:09;11.83;;;6.60;;
73841;SDS011;62184;52.006;5.924;2023-07-13T02:06:36;9.55;;;7.07;;
73841;SDS011;62184;52.006;5.924;2023-07-13T02:09:03;10.63;;;7.30;;
73841;SDS011;62184;52.006;5.924;2023-07-13T02:11:32;10.00;;;7.30;;
73841;SDS011;62184;52.006;5.924;2023-07-13T02:13:59;10.13;;;7.10;;
73841;SDS011;62184;52.006;5.924;2023-07-13T02:16:27;12.90;;;7.13;;
73841;SDS011;62184;52.006;5.924;2023-07-13T02:18:54;9.45;;;7.07;;
73841;SDS011;62184;52.006;5.924;2023-07-13T02:21:20;11.30;;;7.20;;
73841;SDS011;62184;52.006;5.924;2023-07-13T02:23:48;11.87;;;7.30;;
73841;SDS011;62184;52.006;5.924;2023-07-13T02:26:14;9.95;;;6.90;;
73841;SDS011;62184;52.006;5.924;2023-07-13T02:28:44;11.02;;;7.00;;
73841;SDS011;62184;52.006;5.924;2023-07-13T02:31:12;12.13;;;6.90;;
73841;SDS011;62184;52.006;5.924;2023-07-13T02:33:41;11.10;;;6.80;;
73841;SDS011;62184;52.006;5.924;2023-07-13T02:36:08;10.73;;;6.97;;
73841;SDS011;62184;52.006;5.924;2023-07-13T02:38:36;12.27;;;7.32;;
73841;SDS011;62184;52.006;5.924;2023-07-13T02:41:03;11.82;;;7.32;;
73841;SDS011;62184;52.006;5.924;2023-07-13T02:43:30;10.75;;;7.20;;
73841;SDS011;62184;52.006;5.924;2023-07-13T02:46:01;12.75;;;7.80;;
73841;SDS011;62184;52.006;5.924;2023-07-13T02:48:28;11.10;;;7.53;;
73841;SDS011;62184;52.006;5.924;2023-07-13T02:50:55;11.05;;;7.63;;
73841;SDS011;62184;52.006;5.924;2023-07-13T02:53:21;10.00;;;7.25;;
73841;SDS011;62184;52.006;5.924;2023-07-13T02:55:48;13.30;;;7.82;;
73841;SDS011;62184;52.006;5.924;2023-07-13T02:58:14;11.98;;;8.10;;
73841;SDS011;62184;52.006;5.924;2023-07-13T03:00:41;13.20;;;7.93;;
73841;SDS011;62184;52.006;5.924;2023-07-13T03:03:11;12.77;;;7.70;;
73841;SDS011;62184;52.006;5.924;2023-07-13T03:05:37;12.20;;;8.10;;
73841;SDS011;62184;52.006;5.924;2023-07-13T03:08:07;11.07;;;8.20;;
73841;SDS011;62184;52.006;5.924;2023-07-13T03:10:34;13.05;;;8.25;;
73841;SDS011;62184;52.006;5.924;2023-07-13T03:13:01;13.00;;;8.50;;
73841;SDS011;62184;52.006;5.924;2023-07-13T03:15:28;13.97;;;8.83;;
73841;SDS011;62184;52.006;5.924;2023-07-13T03:17:54;13.48;;;8.85;;
73841;SDS011;62184;52.006;5.924;2023-07-13T03:20:24;13.20;;;8.45;;
73841;SDS011;62184;52.006;5.924;2023-07-13T03:22:50;12.40;;;8.50;;
73841;SDS011;62184;52.006;5.924;2023-07-13T03:25:17;13.00;;;8.30;;
73841;SDS011;62184;52.006;5.924;2023-07-13T03:27:43;15.38;;;8.30;;
73841;SDS011;62184;52.006;5.924;2023-07-13T03:30:11;13.80;;;8.63;;
73841;SDS011;62184;52.006;5.924;2023-07-13T03:32:38;14.35;;;8.70;;
73841;SDS011;62184;52.006;5.924;2023-07-13T03:35:05;15.63;;;8.85;;
73841;SDS011;62184;52.006;5.924;2023-07-13T03:37:37;13.47;;;9.10;;
73841;SDS011;62184;52.006;5.924;2023-07-13T03:40:04;12.00;;;8.27;;
73841;SDS011;62184;52.006;5.924;2023-07-13T03:42:32;13.88;;;8.93;;
73841;SDS011;62184;52.006;5.924;2023-07-13T03:44:59;14.95;;;9.18;;
73841;SDS011;62184;52.006;5.924;2023-07-13T03:47:26;13.97;;;9.10;;
73841;SDS011;62184;52.006;5.924;2023-07-13T03:49:52;14.23;;;9.02;;
73841;SDS011;62184;52.006;5.924;2023-07-13T03:52:19;14.35;;;8.93;;
73841;SDS011;62184;52.006;5.924;2023-07-13T03:54:48;13.10;;;8.60;;
73841;SDS011;62184;52.006;5.924;2023-07-13T03:57:15;13.87;;;8.80;;
73841;SDS011;62184;52.006;5.924;2023-07-13T03:59:41;13.80;;;8.70;;
73841;SDS011;62184;52.006;5.924;2023-07-13T04:02:08;13.30;;;8.65;;
73841;SDS011;62184;52.006;5.924;2023-07-13T04:04:35;13.35;;;8.48;;
73841;SDS011;62184;52.006;5.924;2023-07-13T04:07:02;13.00;;;8.50;;
73841;SDS011;62184;52.006;5.924;2023-07-13T04:09:29;14.50;;;8.63;;
73841;SDS011;62184;52.006;5.924;2023-07-13T04:11:59;12.02;;;8.73;;
73841;SDS011;62184;52.006;5.924;2023-07-13T04:14:25;13.82;;;8.10;;
73841;SDS011;62184;52.006;5.924;2023-07-13T04:16:52;13.82;;;9.05;;
73841;SDS011;62184;52.006;5.924;2023-07-13T04:19:19;14.73;;;8.90;;
73841;SDS011;62184;52.006;5.924;2023-07-13T04:21:45;15.68;;;9.23;;
73841;SDS011;62184;52.006;5.924;2023-07-13T04:24:12;15.32;;;9.25;;
73841;SDS011;62184;52.006;5.924;2023-07-13T04:26:39;13.63;;;9.18;;
73841;SDS011;62184;52.006;5.924;2023-07-13T04:29:08;13.97;;;9.27;;
73841;SDS011;62184;52.006;5.924;2023-07-13T04:31:35;14.07;;;9.83;;
73841;SDS011;62184;52.006;5.924;2023-07-13T04:34:02;14.68;;;9.02;;
73841;SDS011;62184;52.006;5.924;2023-07-13T04:36:28;14.40;;;9.40;;
73841;SDS011;62184;52.006;5.924;2023-07-13T04:38:55;15.93;;;9.13;;
73841;SDS011;62184;52.006;5.924;2023-07-13T04:41:21;12.50;;;8.68;;
73841;SDS011;62184;52.006;5.924;2023-07-13T04:43:48;14.85;;;9.55;;
73841;SDS011;62184;52.006;5.924;2023-07-13T04:46:17;14.40;;;9.00;;
73841;SDS011;62184;52.006;5.924;2023-07-13T04:48:44;14.80;;;9.17;;
73841;SDS011;62184;52.006;5.924;2023-07-13T04:51:11;15.00;;;9.15;;
73841;SDS011;62184;52.006;5.924;2023-07-13T04:53:37;16.85;;;9.25;;
73841;SDS011;62184;52.006;5.924;2023-07-13T04:56:04;15.60;;;9.18;;
73841;SDS011;62184;52.006;5.924;2023-07-13T04:58:31;13.40;;;8.63;;
73841;SDS011;62184;52.006;5.924;2023-07-13T05:00:59;15.18;;;9.02;;
73841;SDS011;62184;52.006;5.924;2023-07-13T05:03:29;16.20;;;9.40;;
73841;SDS011;62184;52.006;5.924;2023-07-13T05:05:57;13.07;;;8.70;;
73841;SDS011;62184;52.006;5.924;2023-07-13T05:08:26;13.57;;;8.63;;
73841;SDS011;62184;52.006;5.924;2023-07-13T05:10:52;16.20;;;8.88;;
73841;SDS011;62184;52.006;5.924;2023-07-13T05:13:19;15.68;;;9.00;;
73841;SDS011;62184;52.006;5.924;2023-07-13T05:15:47;14.25;;;8.80;;
73841;SDS011;62184;52.006;5.924;2023-07-13T05:18:24;16.80;;;9.20;;
73841;SDS011;62184;52.006;5.924;2023-07-13T05:20:59;16.50;;;9.52;;
73841;SDS011;62184;52.006;5.924;2023-07-13T05:23:28;14.23;;;9.10;;
73841;SDS011;62184;52.006;5.924;2023-07-13T05:25:56;16.67;;;9.60;;
73841;SDS011;62184;52.006;5.924;2023-07-13T05:28:23;16.30;;;9.93;;
73841;SDS011;62184;52.006;5.924;2023-07-13T05:30:50;15.75;;;9.93;;
73841;SDS011;62184;52.006;5.924;2023-07-13T05:33:17;16.38;;;9.80;;
73841;SDS011;62184;52.006;5.924;2023-07-13T05:35:44;17.55;;;10.00;;
73841;SDS011;62184;52.006;5.924;2023-07-13T05:38:13;14.95;;;9.65;;
73841;SDS011;62184;52.006;5.924;2023-07-13T05:40:41;15.77;;;10.20;;
73841;SDS011;62184;52.006;5.924;2023-07-13T05:43:09;19.83;;;10.40;;
73841;SDS011;62184;52.006;5.924;2023-07-13T05:45:36;18.27;;;10.80;;
73841;SDS011;62184;52.006;5.924;2023-07-13T05:48:02;15.60;;;10.57;;
73841;SDS011;62184;52.006;5.924;2023-07-13T05:50:29;19.07;;;10.70;;
73841;SDS011;62184;52.006;5.924;2023-07-13T05:52:56;20.33;;;10.50;;
73841;SDS011;62184;52.006;5.924;2023-07-13T05:55:25;19.27;;;11.13;;
73841;SDS011;62184;52.006;5.924;2023-07-13T05:57:52;19.23;;;11.40;;
73841;SDS011;62184;52.006;5.924;2023-07-13T06:00:19;20.02;;;12.00;;
73841;SDS011;62184;52.006;5.924;2023-07-13T06:02:46;22.92;;;12.48;;
73841;SDS011;62184;52.006;5.924;2023-07-13T06:05:12;22.52;;;11.88;;
73841;SDS011;62184;52.006;5.924;2023-07-13T06:07:39;21.30;;;12.03;;
73841;SDS011;62184;52.006;5.924;2023-07-13T06:10:07;20.10;;;12.15;;
73841;SDS011;62184;52.006;5.924;2023-07-13T06:12:37;21.77;;;12.98;;
73841;SDS011;62184;52.006;5.924;2023-07-13T06:15:04;19.67;;;12.13;;
73841;SDS011;62184;52.006;5.924;2023-07-13T06:17:33;19.85;;;12.57;;
73841;SDS011;62184;52.006;5.924;2023-07-13T06:19:59;23.30;;;12.95;;
73841;SDS011;62184;52.006;5.924;2023-07-13T06:22:26;21.15;;;13.60;;
73841;SDS011;62184;52.006;5.924;2023-07-13T06:24:53;23.60;;;13.95;;
73841;SDS011;62184;52.006;5.924;2023-07-13T06:27:19;20.98;;;13.80;;
73841;SDS011;62184;52.006;5.924;2023-07-13T06:29:49;25.85;;;14.30;;
73841;SDS011;62184;52.006;5.924;2023-07-13T06:32:15;23.27;;;14.50;;
73841;SDS011;62184;52.006;5.924;2023-07-13T06:34:42;21.60;;;14.65;;
73841;SDS011;62184;52.006;5.924;2023-07-13T06:37:09;24.33;;;14.70;;
73841;SDS011;62184;52.006;5.924;2023-07-13T06:39:36;20.80;;;14.77;;
73841;SDS011;62184;52.006;5.924;2023-07-13T06:42:03;23.15;;;14.55;;
73841;SDS011;62184;52.006;5.924;2023-07-13T06:44:31;24.42;;;15.40;;
73841;SDS011;62184;52.006;5.924;2023-07-13T06:47:00;23.30;;;15.07;;
73841;SDS011;62184;52.006;5.924;2023-07-13T06:49:26;22.25;;;15.20;;
73841;SDS011;62184;52.006;5.924;2023-07-13T06:51:53;23.13;;;16.00;;
73841;SDS011;62184;52.006;5.924;2023-07-13T06:54:20;24.73;;;15.40;;
73841;SDS011;62184;52.006;5.924;2023-07-13T06:56:46;23.30;;;15.23;;
73841;SDS011;62184;52.006;5.924;2023-07-13T06:59:13;22.90;;;15.63;;
73841;SDS011;62184;52.006;5.924;2023-07-13T07:01:40;26.77;;;15.90;;
73841;SDS011;62184;52.006;5.924;2023-07-13T07:04:09;23.27;;;15.88;;
73841;SDS011;62184;52.006;5.924;2023-07-13T07:06:35;22.00;;;15.57;;
73841;SDS011;62184;52.006;5.924;2023-07-13T07:09:02;22.83;;;15.52;;
73841;SDS011;62184;52.006;5.924;2023-07-13T07:11:29;22.63;;;15.80;;
73841;SDS011;62184;52.006;5.924;2023-07-13T07:13:55;23.93;;;15.93;;
73841;SDS011;62184;52.006;5.924;2023-07-13T07:16:23;23.65;;;15.73;;
73841;SDS011;62184;52.006;5.924;2023-07-13T07:18:51;25.63;;;15.90;;
73841;SDS011;62184;52.006;5.924;2023-07-13T07:21:20;22.05;;;16.10;;
73841;SDS011;62184;52.006;5.924;2023-07-13T07:23:47;23.58;;;15.75;;
73841;SDS011;62184;52.006;5.924;2023-07-13T07:26:13;22.40;;;16.08;;
73841;SDS011;62184;52.006;5.924;2023-07-13T07:28:40;25.58;;;16.15;;
73841;SDS011;62184;52.006;5.924;2023-07-13T07:31:07;23.50;;;15.45;;
73841;SDS011;62184;52.006;5.924;2023-07-13T07:33:34;24.37;;;16.10;;
73841;SDS011;62184;52.006;5.924;2023-07-13T07:36:01;22.77;;;15.75;;
73841;SDS011;62184;52.006;5.924;2023-07-13T07:38:32;23.80;;;16.38;;
73841;SDS011;62184;52.006;5.924;2023-07-13T07:40:58;22.50;;;15.45;;
73841;SDS011;62184;52.006;5.924;2023-07-13T07:43:29;22.38;;;15.70;;
73841;SDS011;62184;52.006;5.924;2023-07-13T07:45:55;26.20;;;16.10;;
73841;SDS011;62184;52.006;5.924;2023-07-13T07:48:22;23.13;;;15.93;;
73841;SDS011;62184;52.006;5.924;2023-07-13T07:50:49;21.08;;;15.93;;
73841;SDS011;62184;52.006;5.924;2023-07-13T07:53:15;20.25;;;15.50;;
73841;SDS011;62184;52.006;5.924;2023-07-13T07:55:44;24.38;;;15.98;;
73841;SDS011;62184;52.006;5.924;2023-07-13T07:58:11;22.50;;;15.50;;
73841;SDS011;62184;52.006;5.924;2023-07-13T08:00:38;21.70;;;15.10;;
73841;SDS011;62184;52.006;5.924;2023-07-13T08:03:04;22.20;;;15.68;;
73841;SDS011;62184;52.006;5.924;2023-07-13T08:05:31;20.48;;;14.93;;
73841;SDS011;62184;52.006;5.924;2023-07-13T08:08:01;20.30;;;15.83;;
73841;SDS011;62184;52.006;5.924;2023-07-13T08:10:28;21.02;;;15.32;;
73841;SDS011;62184;52.006;5.924;2023-07-13T08:12:57;21.17;;;15.50;;
73841;SDS011;62184;52.006;5.924;2023-07-13T08:15:23;20.57;;;15.10;;
73841;SDS011;62184;52.006;5.924;2023-07-13T08:17:50;21.30;;;16.50;;
73841;SDS011;62184;52.006;5.924;2023-07-13T08:20:17;22.63;;;16.35;;
73841;SDS011;62184;52.006;5.924;2023-07-13T08:22:43;21.48;;;16.05;;
73841;SDS011;62184;52.006;5.924;2023-07-13T08:25:10;19.70;;;15.43;;
73841;SDS011;62184;52.006;5.924;2023-07-13T08:27:36;22.17;;;15.68;;
73841;SDS011;62184;52.006;5.924;2023-07-13T08:30:06;22.55;;;16.08;;
73841;SDS011;62184;52.006;5.924;2023-07-13T08:32:36;22.05;;;15.85;;
73841;SDS011;62184;52.006;5.924;2023-07-13T08:35:03;21.45;;;15.20;;
73841;SDS011;62184;52.006;5.924;2023-07-13T08:37:31;23.40;;;15.73;;
73841;SDS011;62184;52.006;5.924;2023-07-13T08:39:58;20.77;;;15.50;;
73841;SDS011;62184;52.006;5.924;2023-07-13T08:42:30;19.45;;;14.77;;
73841;SDS011;62184;52.006;5.924;2023-07-13T08:45:12;18.10;;;14.30;;
73841;SDS011;62184;52.006;5.924;2023-07-13T08:47:47;19.63;;;14.32;;
73841;SDS011;62184;52.006;5.924;2023-07-13T08:50:19;16.75;;;13.25;;
73841;SDS011;62184;52.006;5.924;2023-07-13T08:52:53;19.88;;;13.90;;
73841;SDS011;62184;52.006;5.924;2023-07-13T08:55:24;18.00;;;13.73;;
73841;SDS011;62184;52.006;5.924;2023-07-13T08:57:59;19.17;;;14.30;;
73841;SDS011;62184;52.006;5.924;2023-07-13T09:00:38;20.48;;;14.23;;
73841;SDS011;62184;52.006;5.924;2023-07-13T09:03:19;19.58;;;14.88;;
73841;SDS011;62184;52.006;5.924;2023-07-13T09:05:51;19.50;;;14.40;;
73841;SDS011;62184;52.006;5.924;2023-07-13T09:08:30;19.13;;;14.25;;
73841;SDS011;62184;52.006;5.924;2023-07-13T09:11:13;19.08;;;14.50;;
73841;SDS011;62184;52.006;5.924;2023-07-13T09:14:03;16.08;;;13.90;;
73841;SDS011;62184;52.006;5.924;2023-07-13T09:16:54;18.48;;;13.52;;
73841;SDS011;62184;52.006;5.924;2023-07-13T09:19:24;18.13;;;13.45;;
73841;SDS011;62184;52.006;5.924;2023-07-13T09:21:58;15.82;;;12.35;;
73841;SDS011;62184;52.006;5.924;2023-07-13T09:24:35;16.05;;;12.98;;
73841;SDS011;62184;52.006;5.924;2023-07-13T09:27:14;15.50;;;12.30;;
73841;SDS011;62184;52.006;5.924;2023-07-13T09:29:48;15.10;;;11.80;;
73841;SDS011;62184;52.006;5.924;2023-07-13T09:32:30;14.67;;;11.30;;
73841;SDS011;62184;52.006;5.924;2023-07-13T09:34:59;13.35;;;11.05;;
73841;SDS011;62184;52.006;5.924;2023-07-13T09:37:28;11.50;;;9.88;;
73841;SDS011;62184;52.006;5.924;2023-07-13T09:39:58;14.40;;;11.63;;
73841;SDS011;62184;52.006;5.924;2023-07-13T09:42:28;16.00;;;12.90;;
73841;SDS011;62184;52.006;5.924;2023-07-13T09:44:56;17.60;;;13.00;;
73841;SDS011;62184;52.006;5.924;2023-07-13T09:47:26;15.55;;;12.35;;
73841;SDS011;62184;52.006;5.924;2023-07-13T09:49:59;14.07;;;11.57;;
73841;SDS011;62184;52.006;5.924;2023-07-13T09:52:28;11.70;;;9.57;;
73841;SDS011;62184;52.006;5.924;2023-07-13T09:55:19;10.73;;;9.20;;
73841;SDS011;62184;52.006;5.924;2023-07-13T09:57:51;10.60;;;9.35;;
73841;SDS011;62184;52.006;5.924;2023-07-13T10:00:21;13.57;;;9.40;;
73841;SDS011;62184;52.006;5.924;2023-07-13T10:03:03;12.07;;;10.00;;
73841;SDS011;62184;52.006;5.924;2023-07-13T10:05:42;11.73;;;10.40;;
73841;SDS011;62184;52.006;5.924;2023-07-13T10:08:17;14.00;;;10.70;;
73841;SDS011;62184;52.006;5.924;2023-07-13T10:10:52;13.43;;;10.15;;
73841;SDS011;62184;52.006;5.924;2023-07-13T10:13:25;14.90;;;11.10;;
73841;SDS011;62184;52.006;5.924;2023-07-13T10:15:57;12.40;;;10.65;;
73841;SDS011;62184;52.006;5.924;2023-07-13T10:18:28;12.13;;;10.53;;
73841;SDS011;62184;52.006;5.924;2023-07-13T10:21:08;12.27;;;10.43;;
73841;SDS011;62184;52.006;5.924;2023-07-13T10:23:39;12.57;;;10.43;;
73841;SDS011;62184;52.006;5.924;2023-07-13T10:26:10;12.90;;;10.60;;
73841;SDS011;62184;52.006;5.924;2023-07-13T10:28:45;13.23;;;10.57;;
73841;SDS011;62184;52.006;5.924;2023-07-13T10:31:18;13.68;;;10.30;;
73841;SDS011;62184;52.006;5.924;2023-07-13T10:33:49;13.65;;;10.00;;
73841;SDS011;62184;52.006;5.924;2023-07-13T10:36:18;12.25;;;9.60;;
73841;SDS011;62184;52.006;5.924;2023-07-13T10:38:57;11.02;;;9.20;;
73841;SDS011;62184;52.006;5.924;2023-07-13T10:41:29;12.93;;;9.68;;
73841;SDS011;62184;52.006;5.924;2023-07-13T10:44:02;12.85;;;9.65;;
73841;SDS011;62184;52.006;5.924;2023-07-13T10:46:41;10.95;;;8.93;;
73841;SDS011;62184;52.006;5.924;2023-07-13T10:49:12;11.57;;;8.30;;
73841;SDS011;62184;52.006;5.924;2023-07-13T10:51:42;11.65;;;8.57;;
73841;SDS011;62184;52.006;5.924;2023-07-13T10:54:19;11.70;;;8.85;;
73841;SDS011;62184;52.006;5.924;2023-07-13T10:56:48;10.95;;;8.98;;
73841;SDS011;62184;52.006;5.924;2023-07-13T10:59:22;14.15;;;10.45;;
73841;SDS011;62184;52.006;5.924;2023-07-13T11:01:54;11.20;;;10.00;;
73841;SDS011;62184;52.006;5.924;2023-07-13T11:04:29;11.77;;;10.10;;
73841;SDS011;62184;52.006;5.924;2023-07-13T11:07:10;10.25;;;9.15;;
73841;SDS011;62184;52.006;5.924;2023-07-13T11:09:48;9.23;;;8.23;;
73841;SDS011;62184;52.006;5.924;2023-07-13T11:15:39;10.27;;;8.48;;
73841;SDS011;62184;52.006;5.924;2023-07-13T11:18:20;10.38;;;8.80;;
73841;SDS011;62184;52.006;5.924;2023-07-13T11:20:52;11.67;;;9.10;;
73841;SDS011;62184;52.006;5.924;2023-07-13T11:23:41;9.48;;;8.20;;
73841;SDS011;62184;52.006;5.924;2023-07-13T11:29:09;14.18;;;8.95;;
73841;SDS011;62184;52.006;5.924;2023-07-13T11:31:52;14.32;;;12.88;;
73841;SDS011;62184;52.006;5.924;2023-07-13T11:34:21;13.25;;;12.02;;
73841;SDS011;62184;52.006;5.924;2023-07-13T11:37:00;14.63;;;12.27;;
73841;SDS011;62184;52.006;5.924;2023-07-13T11:39:28;12.20;;;11.00;;
73841;SDS011;62184;52.006;5.924;2023-07-13T11:41:59;11.68;;;10.23;;
73841;SDS011;62184;52.006;5.924;2023-07-13T11:44:30;10.35;;;9.25;;
73841;SDS011;62184;52.006;5.924;2023-07-13T11:47:00;10.10;;;9.10;;
73841;SDS011;62184;52.006;5.924;2023-07-13T11:49:42;9.65;;;8.65;;
73841;SDS011;62184;52.006;5.924;2023-07-13T11:52:14;9.23;;;8.32;;
73841;SDS011;62184;52.006;5.924;2023-07-13T11:54:46;8.80;;;7.88;;
73841;SDS011;62184;52.006;5.924;2023-07-13T11:57:22;9.40;;;7.57;;
73841;SDS011;62184;52.006;5.924;2023-07-13T11:59:54;8.88;;;7.55;;
73841;SDS011;62184;52.006;5.924;2023-07-13T12:02:26;8.77;;;7.65;;
73841;SDS011;62184;52.006;5.924;2023-07-13T12:04:57;9.70;;;8.00;;
73841;SDS011;62184;52.006;5.924;2023-07-13T12:07:30;8.27;;;7.38;;
73841;SDS011;62184;52.006;5.924;2023-07-13T12:10:00;9.20;;;7.60;;
73841;SDS011;62184;52.006;5.924;2023-07-13T12:12:28;8.90;;;7.60;;
73841;SDS011;62184;52.006;5.924;2023-07-13T12:14:55;9.02;;;7.80;;
73841;SDS011;62184;52.006;5.924;2023-07-13T12:17:23;9.45;;;7.50;;
73841;SDS011;62184;52.006;5.924;2023-07-13T12:19:52;9.32;;;7.60;;
73841;SDS011;62184;52.006;5.924;2023-07-13T12:22:19;8.93;;;8.02;;
73841;SDS011;62184;52.006;5.924;2023-07-13T12:24:49;9.87;;;8.20;;
73841;SDS011;62184;52.006;5.924;2023-07-13T12:27:19;9.05;;;7.70;;
73841;SDS011;62184;52.006;5.924;2023-07-13T12:29:49;9.75;;;8.05;;
73841;SDS011;62184;52.006;5.924;2023-07-13T12:32:18;9.10;;;7.57;;
73841;SDS011;62184;52.006;5.924;2023-07-13T12:34:52;8.55;;;7.18;;
73841;SDS011;62184;52.006;5.924;2023-07-13T12:37:21;10.18;;;7.60;;
73841;SDS011;62184;52.006;5.924;2023-07-13T12:39:51;9.40;;;7.47;;
73841;SDS011;62184;52.006;5.924;2023-07-13T12:42:19;8.65;;;7.15;;
73841;SDS011;62184;52.006;5.924;2023-07-13T12:44:49;9.33;;;7.17;;
73841;SDS011;62184;52.006;5.924;2023-07-13T12:47:19;9.85;;;7.22;;
73841;SDS011;62184;52.006;5.924;2023-07-13T12:49:48;9.05;;;7.55;;
73841;SDS011;62184;52.006;5.924;2023-07-13T12:52:20;9.45;;;7.40;;
73841;SDS011;62184;52.006;5.924;2023-07-13T12:54:56;8.48;;;7.38;;
73841;SDS011;62184;52.006;5.924;2023-07-13T12:57:24;9.40;;;7.70;;
73841;SDS011;62184;52.006;5.924;2023-07-13T12:59:52;8.55;;;7.22;;
73841;SDS011;62184;52.006;5.924;2023-07-13T13:02:28;8.77;;;7.40;;
73841;SDS011;62184;52.006;5.924;2023-07-13T13:04:59;8.32;;;7.30;;
73841;SDS011;62184;52.006;5.924;2023-07-13T13:07:28;8.65;;;7.60;;
73841;SDS011;62184;52.006;5.924;2023-07-13T13:09:57;7.80;;;7.00;;
73841;SDS011;62184;52.006;5.924;2023-07-13T13:12:24;8.90;;;7.57;;
73841;SDS011;62184;52.006;5.924;2023-07-13T13:14:50;8.93;;;7.60;;
73841;SDS011;62184;52.006;5.924;2023-07-13T13:17:18;8.27;;;7.20;;
73841;SDS011;62184;52.006;5.924;2023-07-13T13:19:47;8.07;;;7.20;;
73841;SDS011;62184;52.006;5.924;2023-07-13T13:22:14;10.35;;;7.63;;
73841;SDS011;62184;52.006;5.924;2023-07-13T13:24:40;8.70;;;7.80;;
73841;SDS011;62184;52.006;5.924;2023-07-13T13:27:12;10.23;;;7.60;;
73841;SDS011;62184;52.006;5.924;2023-07-13T13:29:42;10.35;;;7.95;;
73841;SDS011;62184;52.006;5.924;2023-07-13T13:32:09;9.90;;;8.02;;
73841;SDS011;62184;52.006;5.924;2023-07-13T13:34:39;8.98;;;7.82;;
73841;SDS011;62184;52.006;5.924;2023-07-13T13:37:09;10.65;;;7.72;;
73841;SDS011;62184;52.006;5.924;2023-07-13T13:39:44;9.55;;;8.10;;
73841;SDS011;62184;52.006;5.924;2023-07-13T13:42:15;9.27;;;7.70;;
73841;SDS011;62184;52.006;5.924;2023-07-13T13:44:41;9.68;;;7.60;;
73841;SDS011;62184;52.006;5.924;2023-07-13T13:47:15;9.77;;;8.00;;
73841;SDS011;62184;52.006;5.924;2023-07-13T13:49:56;10.77;;;8.23;;
73841;SDS011;62184;52.006;5.924;2023-07-13T13:52:23;9.50;;;7.90;;
73841;SDS011;62184;52.006;5.924;2023-07-13T13:54:50;9.43;;;7.30;;
73841;SDS011;62184;52.006;5.924;2023-07-13T13:57:20;9.43;;;7.68;;
73841;SDS011;62184;52.006;5.924;2023-07-13T13:59:46;9.27;;;7.88;;
73841;SDS011;62184;52.006;5.924;2023-07-13T14:02:20;9.27;;;7.90;;
73841;SDS011;62184;52.006;5.924;2023-07-13T14:04:52;8.30;;;7.45;;
73841;SDS011;62184;52.006;5.924;2023-07-13T14:07:24;7.80;;;7.00;;
73841;SDS011;62184;52.006;5.924;2023-07-13T14:09:51;8.20;;;7.40;;
73841;SDS011;62184;52.006;5.924;2023-07-13T14:12:21;8.00;;;6.90;;
73841;SDS011;62184;52.006;5.924;2023-07-13T14:14:47;7.32;;;6.50;;
73841;SDS011;62184;52.006;5.924;2023-07-13T14:17:18;7.82;;;6.40;;
73841;SDS011;62184;52.006;5.924;2023-07-13T14:19:48;7.25;;;6.50;;
73841;SDS011;62184;52.006;5.924;2023-07-13T14:22:16;7.70;;;6.60;;
73841;SDS011;62184;52.006;5.924;2023-07-13T14:24:43;7.80;;;6.45;;
73841;SDS011;62184;52.006;5.924;2023-07-13T14:27:10;8.85;;;7.00;;
73841;SDS011;62184;52.006;5.924;2023-07-13T14:29:40;7.43;;;6.70;;
73841;SDS011;62184;52.006;5.924;2023-07-13T14:32:08;7.60;;;6.63;;
73841;SDS011;62184;52.006;5.924;2023-07-13T14:34:36;7.20;;;6.50;;
73841;SDS011;62184;52.006;5.924;2023-07-13T14:37:03;7.10;;;6.40;;
73841;SDS011;62184;52.006;5.924;2023-07-13T14:39:38;7.80;;;7.00;;
73841;SDS011;62184;52.006;5.924;2023-07-13T14:42:05;7.65;;;6.90;;
73841;SDS011;62184;52.006;5.924;2023-07-13T14:44:34;7.65;;;6.70;;
73841;SDS011;62184;52.006;5.924;2023-07-13T14:47:04;8.43;;;6.90;;
73841;SDS011;62184;52.006;5.924;2023-07-13T14:49:34;7.85;;;7.05;;
73841;SDS011;62184;52.006;5.924;2023-07-13T14:52:05;7.43;;;6.72;;